Time;durP1;ratioP1;P1;durP2;ratioP2;P2;SDS_P1;SDS_P2;PMS_P1;PMS_P2;Temp;Humidity;BMP_temperature;BMP_pressure;BME280_temperature;BME280_humidity;BME280_pressure;Samples;Min_cycle;Max_cycle;Signal;HPM_P1;HPM_P2
2024/01/10 00:01:31;;;;;;;15.43;8.93;;;;;;;;;;5054141;28;20033;-49
2024/01/10 00:03:57;;;;;;;18.83;9.87;;;;;;;;;;5053912;28;20039;-49
2024/01/10 00:06:23;;;;;;;14.40;8.50;;;;;;;;;;5053640;28;20108;-49
2024/01/10 00:08:50;;;;;;;13.57;8.70;;;;;;;;;;5054144;28;20025;-49
2024/01/10 00:11:16;;;;;;;12.43;9.77;;;;;;;;;;5054364;28;20111;-49
2024/01/10 00:13:41;;;;;;;11.63;7.20;;;;;;;;;;5056210;28;20083;-49
2024/01/10 00:16:08;;;;;;;17.17;8.77;;;;;;;;;;5057959;28;20033;-49
2024/01/10 00:18:34;;;;;;;13.73;9.17;;;;;;;;;;5058256;28;20112;-51
2024/01/10 00:21:00;;;;;;;10.60;8.20;;;;;;;;;;5057642;28;20036;-50
2024/01/10 00:23:26;;;;;;;13.87;9.27;;;;;;;;;;5057543;28;20025;-49
2024/01/10 00:25:52;;;;;;;16.10;8.33;;;;;;;;;;5057609;28;20455;-54
2024/01/10 00:28:18;;;;;;;12.97;8.83;;;;;;;;;;5058103;28;20031;-49
2024/01/10 00:30:44;;;;;;;16.77;9.17;;;;;;;;;;5057384;28;20108;-54
2024/01/10 00:33:11;;;;;;;15.07;9.23;;;;;;;;;;5057932;28;20028;-52
2024/01/10 00:35:37;;;;;;;19.17;10.23;;;;;;;;;;5057236;28;20072;-49
2024/01/10 00:38:03;;;;;;;17.07;8.57;;;;;;;;;;5057573;28;20108;-52
2024/01/10 00:40:29;;;;;;;11.53;7.30;;;;;;;;;;5057270;28;20033;-49
2024/01/10 00:42:55;;;;;;;11.77;8.60;;;;;;;;;;5057197;28;20413;-52
2024/01/10 00:45:21;;;;;;;16.83;9.33;;;;;;;;;;5057096;28;20052;-53
2024/01/10 00:47:49;;;;;;;12.27;9.07;;;;;;;;;;5057213;28;20021;-51
2024/01/10 00:50:16;;;;;;;15.23;9.43;;;;;;;;;;5056743;28;20115;-55
2024/01/10 00:52:42;;;;;;;14.57;9.33;;;;;;;;;;5057055;28;20021;-49
2024/01/10 00:55:08;;;;;;;11.00;8.40;;;;;;;;;;5056974;28;20451;-48
2024/01/10 00:57:34;;;;;;;12.20;8.20;;;;;;;;;;5057018;28;20515;-52
2024/01/10 01:00:00;;;;;;;13.73;8.70;;;;;;;;;;5056875;28;20112;-53
2024/01/10 01:02:26;;;;;;;20.43;8.80;;;;;;;;;;5056494;28;20056;-51
2024/01/10 01:04:51;;;;;;;15.27;8.43;;;;;;;;;;5056799;28;20079;-48
2024/01/10 01:07:17;;;;;;;13.53;9.30;;;;;;;;;;5056985;28;20036;-52
2024/01/10 01:09:43;;;;;;;17.30;8.73;;;;;;;;;;5056310;28;20459;-53
2024/01/10 01:12:09;;;;;;;9.73;7.80;;;;;;;;;;5056892;28;20025;-50
2024/01/10 01:14:35;;;;;;;14.57;9.70;;;;;;;;;;5057435;28;20537;-53
2024/01/10 01:17:01;;;;;;;15.90;10.20;;;;;;;;;;5056553;28;20035;-55
2024/01/10 01:19:27;;;;;;;12.40;8.67;;;;;;;;;;5057104;28;20029;-53
2024/01/10 01:21:53;;;;;;;13.53;8.17;;;;;;;;;;5056098;28;20040;-55
2024/01/10 01:24:19;;;;;;;11.53;9.17;;;;;;;;;;5055325;28;20112;-53
2024/01/10 01:26:45;;;;;;;15.43;8.43;;;;;;;;;;5056042;28;20067;-47
2024/01/10 01:29:11;;;;;;;12.87;8.63;;;;;;;;;;5056581;28;20057;-50
2024/01/10 01:31:37;;;;;;;10.57;7.43;;;;;;;;;;5056288;28;20477;-52
2024/01/10 01:34:03;;;;;;;14.10;8.77;;;;;;;;;;5056215;28;20029;-50
2024/01/10 01:36:29;;;;;;;14.47;9.17;;;;;;;;;;5056215;28;20033;-52
2024/01/10 01:38:55;;;;;;;14.37;9.50;;;;;;;;;;5057008;28;20032;-51
2024/01/10 01:41:21;;;;;;;14.83;9.40;;;;;;;;;;5056070;28;20127;-53
2024/01/10 01:43:47;;;;;;;11.07;8.57;;;;;;;;;;5056824;28;20021;-54
2024/01/10 01:46:13;;;;;;;13.40;9.17;;;;;;;;;;5056535;28;20470;-52
2024/01/10 01:48:39;;;;;;;15.90;10.70;;;;;;;;;;5056279;28;20103;-53
2024/01/10 01:51:06;;;;;;;12.93;9.30;;;;;;;;;;5055916;28;20120;-53
2024/01/10 01:53:33;;;;;;;14.63;8.77;;;;;;;;;;5055913;28;20025;-51
2024/01/10 01:56:01;;;;;;;14.60;7.90;;;;;;;;;;5055846;28;20080;-51
2024/01/10 01:58:27;;;;;;;13.83;9.47;;;;;;;;;;5056340;28;20040;-51
2024/01/10 02:00:53;;;;;;;15.77;9.90;;;;;;;;;;5056519;28;20029;-49
2024/01/10 02:03:19;;;;;;;9.57;7.53;;;;;;;;;;5055682;28;20397;-52
2024/01/10 02:05:46;;;;;;;12.57;8.93;;;;;;;;;;5056130;28;20112;-50
2024/01/10 02:08:12;;;;;;;13.90;9.47;;;;;;;;;;5055703;28;20036;-51
2024/01/10 02:10:38;;;;;;;12.13;9.67;;;;;;;;;;5055602;28;20025;-50
2024/01/10 02:13:05;;;;;;;12.87;8.50;;;;;;;;;;5055477;28;20021;-53
2024/01/10 02:15:31;;;;;;;9.97;7.97;;;;;;;;;;5055921;28;20037;-49
2024/01/10 02:17:57;;;;;;;17.07;10.23;;;;;;;;;;5056001;28;20367;-51
2024/01/10 02:20:23;;;;;;;13.63;8.43;;;;;;;;;;5055362;28;20029;-49
2024/01/10 02:22:50;;;;;;;16.53;9.37;;;;;;;;;;5055319;28;20025;-55
2024/01/10 02:25:16;;;;;;;11.03;9.07;;;;;;;;;;5055257;28;20455;-49
2024/01/10 02:27:42;;;;;;;13.73;9.37;;;;;;;;;;5055589;28;20025;-53
2024/01/10 02:30:10;;;;;;;11.80;8.80;;;;;;;;;;5055135;28;20036;-49
2024/01/10 02:32:37;;;;;;;15.47;10.00;;;;;;;;;;5053945;28;20021;-50
2024/01/10 02:35:03;;;;;;;12.73;9.53;;;;;;;;;;5054939;28;20024;-49
2024/01/10 02:37:29;;;;;;;15.53;10.73;;;;;;;;;;5054936;28;20033;-50
2024/01/10 02:39:55;;;;;;;12.07;8.40;;;;;;;;;;5055264;28;20101;-53
2024/01/10 02:42:20;;;;;;;12.17;8.83;;;;;;;;;;5055196;28;20083;-53
2024/01/10 02:44:46;;;;;;;13.83;9.90;;;;;;;;;;5054619;28;20082;-52
2024/01/10 02:47:12;;;;;;;14.20;11.13;;;;;;;;;;5055156;28;20040;-54
2024/01/10 02:49:39;;;;;;;17.50;11.27;;;;;;;;;;5054808;28;20036;-51
2024/01/10 02:52:05;;;;;;;16.07;9.67;;;;;;;;;;5054780;28;20035;-50
2024/01/10 02:54:31;;;;;;;17.90;10.40;;;;;;;;;;5054731;28;20098;-50
2024/01/10 02:56:57;;;;;;;12.37;9.10;;;;;;;;;;5055438;28;20048;-50
2024/01/10 02:59:22;;;;;;;17.03;10.70;;;;;;;;;;5054622;28;20025;-50
2024/01/10 03:01:48;;;;;;;12.93;9.13;;;;;;;;;;5055366;28;20431;-49
2024/01/10 03:04:14;;;;;;;16.47;9.50;;;;;;;;;;5054324;28;20363;-49
2024/01/10 03:06:43;;;;;;;12.73;10.03;;;;;;;;;;5054407;28;20147;-50
2024/01/10 03:09:09;;;;;;;16.43;8.70;;;;;;;;;;5055290;28;20017;-48
2024/01/10 03:11:36;;;;;;;12.40;8.17;;;;;;;;;;5054478;28;20056;-48
2024/01/10 03:14:03;;;;;;;12.73;8.33;;;;;;;;;;5054899;28;20352;-48
2024/01/10 03:16:30;;;;;;;13.20;9.37;;;;;;;;;;5054176;28;20075;-49
2024/01/10 03:18:55;;;;;;;17.30;9.40;;;;;;;;;;5055107;28;20032;-52
2024/01/10 03:21:24;;;;;;;11.47;8.90;;;;;;;;;;5054230;28;20029;-49
2024/01/10 03:23:57;;;;;;;14.47;9.00;;;;;;;;;;5054450;28;20025;-49
2024/01/10 03:26:23;;;;;;;16.20;9.40;;;;;;;;;;5053887;28;20029;-50
2024/01/10 03:28:49;;;;;;;11.43;9.43;;;;;;;;;;5054682;28;20048;-49
2024/01/10 03:31:15;;;;;;;11.30;8.77;;;;;;;;;;5054156;28;20021;-48
2024/01/10 03:33:41;;;;;;;12.07;9.37;;;;;;;;;;5054572;28;20116;-48
2024/01/10 03:36:10;;;;;;;13.20;9.83;;;;;;;;;;5053877;28;20108;-48
2024/01/10 03:38:36;;;;;;;14.63;8.43;;;;;;;;;;5054015;28;20033;-49
2024/01/10 03:41:02;;;;;;;12.17;8.73;;;;;;;;;;5054442;28;20036;-49
2024/01/10 03:43:28;;;;;;;12.40;8.50;;;;;;;;;;5054379;28;20363;-49
2024/01/10 03:45:54;;;;;;;20.63;9.47;;;;;;;;;;5053548;28;20032;-49
2024/01/10 03:48:20;;;;;;;18.60;9.97;;;;;;;;;;5054097;28;20025;-48
2024/01/10 03:50:46;;;;;;;14.17;9.77;;;;;;;;;;5054264;28;20167;-50
2024/01/10 03:53:12;;;;;;;13.50;10.07;;;;;;;;;;5054101;28;20030;-48
2024/01/10 03:55:39;;;;;;;15.13;10.17;;;;;;;;;;5053845;28;20052;-50
2024/01/10 03:58:05;;;;;;;18.13;10.20;;;;;;;;;;5053671;28;20482;-50
2024/01/10 04:00:30;;;;;;;17.07;9.37;;;;;;;;;;5054222;28;20029;-50
2024/01/10 04:02:57;;;;;;;13.87;9.93;;;;;;;;;;5053617;28;20041;-48
2024/01/10 04:05:25;;;;;;;15.10;10.50;;;;;;;;;;5053500;28;20087;-49
2024/01/10 04:07:51;;;;;;;15.20;11.10;;;;;;;;;;5053657;28;20029;-48
2024/01/10 04:10:16;;;;;;;12.93;9.80;;;;;;;;;;5053538;28;20032;-49
2024/01/10 04:12:45;;;;;;;13.70;9.97;;;;;;;;;;5053563;28;20477;-49
2024/01/10 04:15:12;;;;;;;14.87;10.00;;;;;;;;;;5053497;28;20036;-50
2024/01/10 04:17:38;;;;;;;15.37;10.00;;;;;;;;;;5053505;28;20046;-49
2024/01/10 04:20:05;;;;;;;14.40;10.20;;;;;;;;;;5053542;28;20025;-49
2024/01/10 04:22:31;;;;;;;15.83;10.73;;;;;;;;;;5053720;28;20060;-49
2024/01/10 04:25:00;;;;;;;16.27;11.50;;;;;;;;;;5053450;28;20478;-49
2024/01/10 04:27:26;;;;;;;13.40;10.00;;;;;;;;;;5053853;28;20070;-51
2024/01/10 04:29:53;;;;;;;14.63;9.83;;;;;;;;;;5053356;28;20440;-50
2024/01/10 04:32:19;;;;;;;20.20;11.70;;;;;;;;;;5053255;28;20049;-49
2024/01/10 04:34:45;;;;;;;14.87;10.60;;;;;;;;;;5053137;28;20025;-49
2024/01/10 04:37:11;;;;;;;14.40;10.93;;;;;;;;;;5053220;28;20078;-48
2024/01/10 04:39:42;;;;;;;15.43;11.13;;;;;;;;;;5054071;28;20414;-50
2024/01/10 04:42:08;;;;;;;13.50;10.33;;;;;;;;;;5053555;28;20033;-49
2024/01/10 04:44:34;;;;;;;12.83;11.03;;;;;;;;;;5053205;28;20044;-48
2024/01/10 04:47:00;;;;;;;17.97;10.93;;;;;;;;;;5053522;28;20056;-48
2024/01/10 04:49:26;;;;;;;13.30;11.90;;;;;;;;;;5053752;28;20064;-49
2024/01/10 04:51:55;;;;;;;17.53;11.07;;;;;;;;;;5053232;28;20029;-49
2024/01/10 04:54:21;;;;;;;15.60;10.23;;;;;;;;;;5052863;28;20364;-48
2024/01/10 04:56:47;;;;;;;15.67;11.60;;;;;;;;;;5052805;28;20048;-53
2024/01/10 04:59:13;;;;;;;25.20;11.53;;;;;;;;;;5055341;28;20025;-52
2024/01/10 05:01:39;;;;;;;13.47;9.57;;;;;;;;;;5057149;28;20024;-50
2024/01/10 05:04:05;;;;;;;18.23;11.17;;;;;;;;;;5056902;28;20021;-49
2024/01/10 05:06:31;;;;;;;17.97;11.87;;;;;;;;;;5057157;28;20468;-52
2024/01/10 05:08:58;;;;;;;16.73;10.90;;;;;;;;;;5056844;28;20112;-53
2024/01/10 05:11:24;;;;;;;19.43;10.93;;;;;;;;;;5057247;28;20032;-49
2024/01/10 05:13:50;;;;;;;13.43;10.70;;;;;;;;;;5057275;28;20025;-50
2024/01/10 05:16:17;;;;;;;16.20;11.07;;;;;;;;;;5057083;28;20371;-53
2024/01/10 05:18:43;;;;;;;17.70;11.40;;;;;;;;;;5057287;28;20025;-51
2024/01/10 05:21:09;;;;;;;18.30;11.67;;;;;;;;;;5057161;28;20025;-48
2024/01/10 05:23:35;;;;;;;18.00;11.47;;;;;;;;;;5057168;28;20350;-48
2024/01/10 05:26:01;;;;;;;20.63;13.53;;;;;;;;;;5056499;28;20059;-52
2024/01/10 05:28:27;;;;;;;17.93;9.97;;;;;;;;;;5056763;28;20406;-52
2024/01/10 05:30:53;;;;;;;17.40;11.20;;;;;;;;;;5056364;28;20352;-49
2024/01/10 05:33:20;;;;;;;18.73;11.20;;;;;;;;;;5056319;28;20029;-52
2024/01/10 05:35:46;;;;;;;17.60;13.07;;;;;;;;;;5056145;28;20041;-49
2024/01/10 05:38:12;;;;;;;16.60;11.47;;;;;;;;;;5056796;28;20025;-52
2024/01/10 05:40:38;;;;;;;16.10;11.87;;;;;;;;;;5055441;28;20033;-53
2024/01/10 05:43:04;;;;;;;13.73;10.83;;;;;;;;;;5056417;28;20447;-51
2024/01/10 05:45:30;;;;;;;14.67;11.57;;;;;;;;;;5056083;28;20460;-53
2024/01/10 05:47:56;;;;;;;19.67;12.03;;;;;;;;;;5056694;28;20067;-49
2024/01/10 05:50:22;;;;;;;15.87;10.97;;;;;;;;;;5056742;28;20028;-49
2024/01/10 05:52:48;;;;;;;14.57;9.57;;;;;;;;;;5056215;28;20021;-52
2024/01/10 05:55:14;;;;;;;19.23;12.80;;;;;;;;;;5055681;28;20025;-50
2024/01/10 05:57:40;;;;;;;13.70;11.07;;;;;;;;;;5055795;28;20044;-49
2024/01/10 06:00:10;;;;;;;16.43;12.43;;;;;;;;;;5055789;28;20419;-54
2024/01/10 06:02:38;;;;;;;20.65;13.98;;;;;;;;;;5056489;28;20029;-52
2024/01/10 06:05:06;;;;;;;18.07;11.77;;;;;;;;;;5056115;28;20029;-50
2024/01/10 06:07:32;;;;;;;12.70;10.90;;;;;;;;;;5055968;28;20439;-51
2024/01/10 06:09:58;;;;;;;11.77;8.67;;;;;;;;;;5055550;28;20048;-50
2024/01/10 06:12:25;;;;;;;16.43;12.17;;;;;;;;;;5053868;28;20017;-48
2024/01/10 06:14:51;;;;;;;17.67;11.27;;;;;;;;;;5056088;28;20032;-52
2024/01/10 06:17:18;;;;;;;18.43;11.73;;;;;;;;;;5055220;28;20025;-50
2024/01/10 06:19:44;;;;;;;18.60;12.50;;;;;;;;;;5055629;28;20029;-50
2024/01/10 06:22:11;;;;;;;16.07;11.80;;;;;;;;;;5055239;28;20099;-53
2024/01/10 06:24:43;;;;;;;17.40;11.53;;;;;;;;;;5055107;28;20449;-51
2024/01/10 06:30:14;;;;;;;14.67;10.70;;;;;;;;;;5028155;28;20538;-52
2024/01/10 06:32:40;;;;;;;13.53;10.40;;;;;;;;;;5055317;28;20061;-53
2024/01/10 06:35:09;;;;;;;14.47;10.00;;;;;;;;;;5055051;28;20097;-51
2024/01/10 06:37:35;;;;;;;12.50;10.57;;;;;;;;;;5055929;28;20117;-51
2024/01/10 06:40:00;;;;;;;15.00;11.97;;;;;;;;;;5054931;28;20025;-53
2024/01/10 06:42:26;;;;;;;18.10;12.80;;;;;;;;;;5055692;28;20116;-51
2024/01/10 06:44:52;;;;;;;20.00;11.20;;;;;;;;;;5055409;28;20407;-52
2024/01/10 06:47:19;;;;;;;18.17;12.33;;;;;;;;;;5054714;28;20037;-54
2024/01/10 06:49:45;;;;;;;17.40;11.23;;;;;;;;;;5054405;28;20486;-48
2024/01/10 06:52:11;;;;;;;19.73;12.97;;;;;;;;;;5054732;28;20017;-52
2024/01/10 06:54:37;;;;;;;17.17;12.73;;;;;;;;;;5054414;28;20035;-49
2024/01/10 06:57:03;;;;;;;20.70;15.17;;;;;;;;;;5055298;28;20140;-52
2024/01/10 06:59:29;;;;;;;17.40;13.37;;;;;;;;;;5054543;28;20025;-50
2024/01/10 07:01:56;;;;;;;22.73;14.20;;;;;;;;;;5055166;28;20029;-54
2024/01/10 07:04:23;;;;;;;26.33;12.67;;;;;;;;;;5054922;28;20039;-47
2024/01/10 07:06:49;;;;;;;29.63;14.53;;;;;;;;;;5054967;28;20398;-52
2024/01/10 07:09:19;;;;;;;16.37;12.17;;;;;;;;;;5054616;28;20036;-53
2024/01/10 07:11:47;;;;;;;24.23;12.83;;;;;;;;;;5054716;28;20025;-50
2024/01/10 07:14:13;;;;;;;18.20;13.30;;;;;;;;;;5054541;28;20044;-49
2024/01/10 07:16:42;;;;;;;19.93;13.17;;;;;;;;;;5054229;28;20033;-52
2024/01/10 07:19:08;;;;;;;15.30;12.77;;;;;;;;;;5054004;28;20530;-49
2024/01/10 07:21:33;;;;;;;15.30;12.17;;;;;;;;;;5053948;28;20111;-52
2024/01/10 07:23:59;;;;;;;20.43;12.80;;;;;;;;;;5053310;28;20056;-48
2024/01/10 07:26:27;;;;;;;21.23;12.27;;;;;;;;;;5054220;28;20041;-48
2024/01/10 07:28:53;;;;;;;17.07;12.93;;;;;;;;;;5054148;28;20017;-50
2024/01/10 07:31:19;;;;;;;21.33;13.70;;;;;;;;;;5054021;28;20028;-51
2024/01/10 07:33:45;;;;;;;17.43;12.27;;;;;;;;;;5053921;28;20028;-53
2024/01/10 07:36:11;;;;;;;13.47;11.30;;;;;;;;;;5054122;28;20029;-50
2024/01/10 07:38:36;;;;;;;22.43;15.10;;;;;;;;;;5054774;28;20514;-51
2024/01/10 07:41:02;;;;;;;19.23;11.30;;;;;;;;;;5053915;28;20029;-53
2024/01/10 07:43:29;;;;;;;18.10;12.53;;;;;;;;;;5054657;28;20367;-52
2024/01/10 07:45:55;;;;;;;20.87;14.17;;;;;;;;;;5053320;28;20032;-54
2024/01/10 07:48:21;;;;;;;17.23;13.60;;;;;;;;;;5054177;28;20031;-53
2024/01/10 07:50:47;;;;;;;15.47;13.30;;;;;;;;;;5054303;28;20075;-50
2024/01/10 07:53:13;;;;;;;17.17;12.13;;;;;;;;;;5053728;28;20021;-52
2024/01/10 07:55:39;;;;;;;17.70;12.30;;;;;;;;;;5053715;28;20045;-52
2024/01/10 07:58:05;;;;;;;17.73;12.10;;;;;;;;;;5054487;28;20068;-52
2024/01/10 08:00:31;;;;;;;17.10;11.40;;;;;;;;;;5053600;28;20033;-51
2024/01/10 08:02:58;;;;;;;17.80;12.20;;;;;;;;;;5053705;28;20459;-53
2024/01/10 08:05:24;;;;;;;20.73;13.07;;;;;;;;;;5053435;28;20072;-51
2024/01/10 08:07:53;;;;;;;19.70;14.23;;;;;;;;;;5054457;28;20025;-52
2024/01/10 08:10:19;;;;;;;18.67;13.30;;;;;;;;;;5053575;28;20025;-54
2024/01/10 08:12:46;;;;;;;16.73;11.90;;;;;;;;;;5053429;28;20032;-47
2024/01/10 08:15:12;;;;;;;24.20;14.13;;;;;;;;;;5054170;28;20176;-51
2024/01/10 08:17:38;;;;;;;22.03;13.67;;;;;;;;;;5053376;28;20116;-49
2024/01/10 08:20:06;;;;;;;24.33;15.17;;;;;;;;;;5053649;28;20090;-53
2024/01/10 08:22:32;;;;;;;19.10;14.20;;;;;;;;;;5053387;28;20025;-51
2024/01/10 08:24:58;;;;;;;19.17;14.67;;;;;;;;;;5053975;28;20503;-53
2024/01/10 08:27:23;;;;;;;20.50;15.47;;;;;;;;;;5053708;28;20036;-51
2024/01/10 08:29:49;;;;;;;22.60;15.77;;;;;;;;;;5053321;28;20045;-51
2024/01/10 08:32:17;;;;;;;18.37;14.17;;;;;;;;;;5053662;28;20514;-51
2024/01/10 08:34:44;;;;;;;20.40;14.00;;;;;;;;;;5056482;28;20067;-50
2024/01/10 08:37:10;;;;;;;19.10;14.17;;;;;;;;;;5057227;28;20036;-51
2024/01/10 08:39:36;;;;;;;19.33;14.77;;;;;;;;;;5057239;28;20113;-53
2024/01/10 08:42:02;;;;;;;21.90;15.57;;;;;;;;;;5057225;28;20482;-52
2024/01/10 08:44:28;;;;;;;19.23;14.60;;;;;;;;;;5057927;28;20072;-49
2024/01/10 08:46:54;;;;;;;21.97;14.50;;;;;;;;;;5057203;28;20078;-54
2024/01/10 08:49:20;;;;;;;24.17;15.87;;;;;;;;;;5058006;28;20359;-51
2024/01/10 08:51:46;;;;;;;20.83;15.80;;;;;;;;;;5056839;28;20021;-52
2024/01/10 08:54:16;;;;;;;23.07;15.13;;;;;;;;;;5056750;28;20027;-48
2024/01/10 08:56:43;;;;;;;18.15;14.90;;;;;;;;;;5057159;28;20064;-51
2024/01/10 08:59:09;;;;;;;20.57;14.97;;;;;;;;;;5057453;28;20022;-49
2024/01/10 09:01:35;;;;;;;19.37;14.37;;;;;;;;;;5057146;28;20028;-52
2024/01/10 09:04:03;;;;;;;18.57;13.77;;;;;;;;;;5056878;28;20019;-52
2024/01/10 09:06:31;;;;;;;22.07;15.67;;;;;;;;;;5056753;28;20028;-53
2024/01/10 09:08:57;;;;;;;25.83;15.67;;;;;;;;;;5057098;28;20104;-53
2024/01/10 09:11:22;;;;;;;22.47;16.80;;;;;;;;;;5056772;28;20475;-49
2024/01/10 09:13:49;;;;;;;21.57;15.70;;;;;;;;;;5056276;28;20025;-51
2024/01/10 09:16:15;;;;;;;18.63;15.17;;;;;;;;;;5057260;28;20037;-52
2024/01/10 09:18:41;;;;;;;21.90;15.33;;;;;;;;;;5056930;28;20025;-48
2024/01/10 09:21:07;;;;;;;18.20;14.77;;;;;;;;;;5056506;28;20095;-53
2024/01/10 09:23:33;;;;;;;19.43;15.47;;;;;;;;;;5056395;28;20040;-51
2024/01/10 09:25:59;;;;;;;22.03;16.70;;;;;;;;;;5057200;28;20029;-51
2024/01/10 09:28:26;;;;;;;24.37;15.17;;;;;;;;;;5056753;28;20021;-51
2024/01/10 09:30:51;;;;;;;20.93;15.23;;;;;;;;;;5057047;28;20021;-51
2024/01/10 09:33:17;;;;;;;20.63;16.67;;;;;;;;;;5056375;28;20421;-53
2024/01/10 09:35:43;;;;;;;20.63;16.13;;;;;;;;;;5056736;28;20021;-49
2024/01/10 09:38:09;;;;;;;17.60;15.43;;;;;;;;;;5056765;28;20032;-54
2024/01/10 09:40:35;;;;;;;18.23;15.50;;;;;;;;;;5056097;28;20378;-51
2024/01/10 09:43:01;;;;;;;22.47;16.43;;;;;;;;;;5055704;28;20070;-52
2024/01/10 09:45:28;;;;;;;28.57;17.40;;;;;;;;;;5055646;28;20082;-51
2024/01/10 09:47:56;;;;;;;26.07;18.60;;;;;;;;;;5055810;28;20025;-49
2024/01/10 09:50:22;;;;;;;19.20;15.77;;;;;;;;;;5056094;28;20395;-53
2024/01/10 09:52:52;;;;;;;19.90;15.70;;;;;;;;;;5055648;28;20021;-51
2024/01/10 09:55:21;;;;;;;21.38;16.20;;;;;;;;;;5055636;28;20025;-49
2024/01/10 09:57:47;;;;;;;23.53;16.20;;;;;;;;;;5055787;28;20048;-50
2024/01/10 10:00:13;;;;;;;27.33;18.17;;;;;;;;;;5056043;28;20025;-49
2024/01/10 10:02:39;;;;;;;27.67;20.37;;;;;;;;;;5055747;28;20029;-53
2024/01/10 10:05:09;;;;;;;24.33;17.50;;;;;;;;;;5055710;28;20028;-54
2024/01/10 10:07:45;;;;;;;26.67;17.43;;;;;;;;;;5055528;28;20063;-52
2024/01/10 10:10:12;;;;;;;21.03;16.20;;;;;;;;;;5055727;28;20459;-54
2024/01/10 10:12:47;;;;;;;27.10;18.67;;;;;;;;;;5055985;28;20029;-52
2024/01/10 10:15:14;;;;;;;24.60;17.63;;;;;;;;;;5055386;28;20053;-50
2024/01/10 10:17:46;;;;;;;26.87;17.23;;;;;;;;;;5055640;28;20091;-54
2024/01/10 10:20:13;;;;;;;25.83;18.60;;;;;;;;;;5055875;28;20036;-52
2024/01/10 10:22:39;;;;;;;21.70;16.87;;;;;;;;;;5055346;28;20033;-54
2024/01/10 10:25:05;;;;;;;28.63;18.50;;;;;;;;;;5054132;28;20115;-51
2024/01/10 10:27:32;;;;;;;24.77;17.83;;;;;;;;;;5055507;28;20032;-54
2024/01/10 10:29:58;;;;;;;31.30;18.90;;;;;;;;;;5055201;28;20025;-52
2024/01/10 10:32:24;;;;;;;22.50;17.67;;;;;;;;;;5055612;28;20021;-53
2024/01/10 10:34:50;;;;;;;22.90;18.37;;;;;;;;;;5055453;28;20435;-53
2024/01/10 10:37:19;;;;;;;28.23;18.27;;;;;;;;;;5055510;28;20143;-52
2024/01/10 10:39:45;;;;;;;24.60;21.20;;;;;;;;;;5055070;28;20029;-53
2024/01/10 10:42:11;;;;;;;26.43;19.20;;;;;;;;;;5055006;28;20036;-49
2024/01/10 10:44:40;;;;;;;24.00;18.77;;;;;;;;;;5055004;28;20522;-54
2024/01/10 10:47:09;;;;;;;23.67;17.50;;;;;;;;;;5054850;28;20036;-52
2024/01/10 10:49:35;;;;;;;32.73;19.40;;;;;;;;;;5055692;28;20032;-54
2024/01/10 10:52:02;;;;;;;24.93;18.57;;;;;;;;;;5054890;28;20370;-54
2024/01/10 10:54:30;;;;;;;26.00;18.93;;;;;;;;;;5054846;28;20033;-54
2024/01/10 10:56:58;;;;;;;25.77;18.87;;;;;;;;;;5054838;28;20430;-52
2024/01/10 10:59:26;;;;;;;26.50;19.37;;;;;;;;;;5054776;28;20136;-51
2024/01/10 11:01:52;;;;;;;31.27;19.67;;;;;;;;;;5055469;28;20086;-52
2024/01/10 11:04:19;;;;;;;28.60;19.13;;;;;;;;;;5054707;28;20475;-52
2024/01/10 11:06:45;;;;;;;26.70;19.03;;;;;;;;;;5054561;28;20193;-54
2024/01/10 11:09:12;;;;;;;27.80;19.33;;;;;;;;;;5054969;28;20363;-52
2024/01/10 11:11:38;;;;;;;27.10;20.53;;;;;;;;;;5055296;28;20036;-51
2024/01/10 11:14:15;;;;;;;28.00;20.60;;;;;;;;;;5055212;28;20056;-51
2024/01/10 11:16:41;;;;;;;27.53;20.93;;;;;;;;;;5054443;28;20084;-54
2024/01/10 11:19:07;;;;;;;24.60;20.43;;;;;;;;;;5054340;28;20024;-50
2024/01/10 11:21:52;;;;;;;23.70;17.63;;;;;;;;;;5054299;28;20367;-51
2024/01/10 11:24:18;;;;;;;24.10;19.13;;;;;;;;;;5054770;28;20025;-50
2024/01/10 11:26:45;;;;;;;27.10;19.50;;;;;;;;;;5054800;28;20035;-52
2024/01/10 11:29:12;;;;;;;25.33;21.13;;;;;;;;;;5054228;28;20025;-54
2024/01/10 11:31:39;;;;;;;31.43;20.10;;;;;;;;;;5054094;28;20379;-51
2024/01/10 11:34:05;;;;;;;32.53;22.30;;;;;;;;;;5054161;28;20025;-52
2024/01/10 11:36:31;;;;;;;31.90;20.53;;;;;;;;;;5053904;28;20043;-50
2024/01/10 11:38:57;;;;;;;25.73;19.47;;;;;;;;;;5054597;28;20029;-51
2024/01/10 11:41:28;;;;;;;30.40;21.60;;;;;;;;;;5054478;28;20032;-51
2024/01/10 11:44:15;;;;;;;34.13;21.43;;;;;;;;;;5054020;28;20025;-53
2024/01/10 11:46:41;;;;;;;29.50;21.27;;;;;;;;;;5054665;28;20029;-50
2024/01/10 11:49:07;;;;;;;24.63;20.53;;;;;;;;;;5054503;28;20029;-49
2024/01/10 11:51:36;;;;;;;26.23;18.63;;;;;;;;;;5054461;28;20029;-49
2024/01/10 11:54:02;;;;;;;27.20;22.33;;;;;;;;;;5054280;28;20041;-50
2024/01/10 11:56:38;;;;;;;28.80;20.87;;;;;;;;;;5053714;28;20473;-49
2024/01/10 11:59:11;;;;;;;26.97;21.30;;;;;;;;;;5054560;28;20096;-48
2024/01/10 12:01:40;;;;;;;32.87;22.97;;;;;;;;;;5054270;28;20025;-54
2024/01/10 12:04:06;;;;;;;25.83;19.87;;;;;;;;;;5053450;28;20108;-54
2024/01/10 12:06:33;;;;;;;29.97;21.40;;;;;;;;;;5053865;28;20428;-53
2024/01/10 12:08:59;;;;;;;26.57;20.73;;;;;;;;;;5053854;28;20025;-50
2024/01/10 12:11:26;;;;;;;31.53;20.87;;;;;;;;;;5053899;28;20033;-48
2024/01/10 12:13:52;;;;;;;24.93;19.10;;;;;;;;;;5054149;28;20363;-51
2024/01/10 12:16:18;;;;;;;33.97;21.23;;;;;;;;;;5053319;28;20040;-51
2024/01/10 12:18:44;;;;;;;25.00;18.30;;;;;;;;;;5054219;28;20032;-50
2024/01/10 12:21:12;;;;;;;31.60;20.83;;;;;;;;;;5053863;28;20483;-52
2024/01/10 12:23:38;;;;;;;25.53;18.90;;;;;;;;;;5053839;28;20107;-53
2024/01/10 12:26:07;;;;;;;28.67;20.23;;;;;;;;;;5053492;28;20036;-50
2024/01/10 12:28:33;;;;;;;27.90;19.33;;;;;;;;;;5054368;28;20028;-52
2024/01/10 12:30:59;;;;;;;28.10;19.97;;;;;;;;;;5053452;28;20029;-49
2024/01/10 12:33:25;;;;;;;26.77;18.13;;;;;;;;;;5053405;28;20029;-50
2024/01/10 12:36:04;;;;;;;28.83;20.10;;;;;;;;;;5053064;28;20555;-51
2024/01/10 12:38:31;;;;;;;27.93;21.27;;;;;;;;;;5053992;28;20031;-52
2024/01/10 12:40:57;;;;;;;22.43;17.60;;;;;;;;;;5052981;28;20029;-53
2024/01/10 12:43:23;;;;;;;26.67;18.87;;;;;;;;;;5053418;28;20017;-51
2024/01/10 12:46:03;;;;;;;26.93;19.47;;;;;;;;;;5053476;28;20021;-54
2024/01/10 12:48:29;;;;;;;31.63;21.48;;;;;;;;;;5053962;28;20419;-54
2024/01/10 12:50:55;;;;;;;27.23;20.10;;;;;;;;;;5054050;28;20067;-53
2024/01/10 12:53:21;;;;;;;25.23;19.10;;;;;;;;;;5053305;28;20025;-53
2024/01/10 12:55:47;;;;;;;29.43;20.67;;;;;;;;;;5053252;28;20084;-54
2024/01/10 12:58:13;;;;;;;29.07;19.17;;;;;;;;;;5053259;28;20489;-53
2024/01/10 13:00:40;;;;;;;23.20;19.30;;;;;;;;;;5053239;28;20454;-53
2024/01/10 13:03:06;;;;;;;29.27;19.77;;;;;;;;;;5053735;28;20443;-54
2024/01/10 13:05:32;;;;;;;28.93;20.80;;;;;;;;;;5053174;28;20064;-54
2024/01/10 13:07:58;;;;;;;26.63;18.37;;;;;;;;;;5053805;28;20394;-54
2024/01/10 13:10:24;;;;;;;23.17;17.30;;;;;;;;;;5053091;28;20059;-55
2024/01/10 13:12:50;;;;;;;26.03;18.97;;;;;;;;;;5053052;28;20107;-50
2024/01/10 13:15:16;;;;;;;27.63;18.30;;;;;;;;;;5053092;28;20021;-54
2024/01/10 13:17:42;;;;;;;26.80;18.37;;;;;;;;;;5053378;28;20033;-53
2024/01/10 13:20:09;;;;;;;28.00;17.77;;;;;;;;;;5052930;28;20387;-49
2024/01/10 13:22:35;;;;;;;26.17;16.93;;;;;;;;;;5057519;28;20091;-53
2024/01/10 13:25:02;;;;;;;23.97;17.60;;;;;;;;;;5057140;28;20021;-52
2024/01/10 13:27:28;;;;;;;25.07;16.53;;;;;;;;;;5057164;28;20029;-49
2024/01/10 13:29:54;;;;;;;26.13;17.80;;;;;;;;;;5056580;28;20344;-54
2024/01/10 13:32:20;;;;;;;23.33;16.30;;;;;;;;;;5057094;28;20028;-53
2024/01/10 13:34:46;;;;;;;22.50;17.77;;;;;;;;;;5055232;28;20025;-55
2024/01/10 13:37:12;;;;;;;23.20;17.47;;;;;;;;;;5056371;28;20089;-53
2024/01/10 13:39:39;;;;;;;23.13;18.77;;;;;;;;;;5056374;28;20029;-53
2024/01/10 13:42:05;;;;;;;25.83;19.50;;;;;;;;;;5057371;28;20098;-52
2024/01/10 13:44:31;;;;;;;23.40;18.70;;;;;;;;;;5056593;28;20112;-55
2024/01/10 13:46:57;;;;;;;29.10;19.97;;;;;;;;;;5056769;28;20024;-53
2024/01/10 13:49:23;;;;;;;31.70;21.10;;;;;;;;;;5056697;28;20032;-52
2024/01/10 13:51:49;;;;;;;30.50;20.43;;;;;;;;;;5056590;28;20472;-53
2024/01/10 13:54:15;;;;;;;25.53;20.77;;;;;;;;;;5056389;28;20104;-51
2024/01/10 13:56:41;;;;;;;29.73;20.87;;;;;;;;;;5055682;28;20139;-51
2024/01/10 13:59:07;;;;;;;28.77;19.97;;;;;;;;;;5056533;28;20061;-54
2024/01/10 14:01:33;;;;;;;26.20;19.87;;;;;;;;;;5055937;28;20025;-54
2024/01/10 14:03:59;;;;;;;30.73;20.03;;;;;;;;;;5055881;28;20036;-55
2024/01/10 14:06:25;;;;;;;21.93;19.53;;;;;;;;;;5055400;28;20394;-53
2024/01/10 14:08:53;;;;;;;31.20;21.50;;;;;;;;;;5056522;28;20025;-53
2024/01/10 14:11:19;;;;;;;26.00;19.60;;;;;;;;;;5055784;28;20348;-53
2024/01/10 14:13:45;;;;;;;32.30;18.83;;;;;;;;;;5056256;28;20025;-54
2024/01/10 14:16:11;;;;;;;27.40;18.90;;;;;;;;;;5056192;28;20037;-52
2024/01/10 14:18:37;;;;;;;28.07;18.83;;;;;;;;;;5056264;28;20032;-52
2024/01/10 14:21:05;;;;;;;27.57;18.90;;;;;;;;;;5055573;28;20036;-53